sensor_id;sensor_type;location;lat;lon;timestamp;pressure;altitude;pressure_sealevel;temperature;humidity
36254;BME280;22291;52.250;21.228;2023-09-07T00:00:47;101251.34;;;15.15;75.04
36254;BME280;22291;52.250;21.228;2023-09-07T00:03:15;101247.89;;;15.11;75.15
36254;BME280;22291;52.250;21.228;2023-09-07T00:05:42;101256.38;;;15.10;75.51
36254;BME280;22291;52.250;21.228;2023-09-07T00:08:08;101256.15;;;15.09;75.64
36254;BME280;22291;52.250;21.228;2023-09-07T00:10:34;101261.66;;;15.06;75.48
36254;BME280;22291;52.250;21.228;2023-09-07T00:13:04;101257.17;;;15.02;75.48
36254;BME280;22291;52.250;21.228;2023-09-07T00:15:36;101262.62;;;15.02;75.85
36254;BME280;22291;52.250;21.228;2023-09-07T00:18:04;101263.98;;;15.02;75.91
36254;BME280;22291;52.250;21.228;2023-09-07T00:20:31;101262.94;;;15.00;76.66
36254;BME280;22291;52.250;21.228;2023-09-07T00:23:00;101258.03;;;15.00;77.12
36254;BME280;22291;52.250;21.228;2023-09-07T00:25:27;101263.98;;;15.02;77.84
36254;BME280;22291;52.250;21.228;2023-09-07T00:27:53;101256.30;;;15.04;77.48
36254;BME280;22291;52.250;21.228;2023-09-07T00:30:20;101265.52;;;15.05;77.64
36254;BME280;22291;52.250;21.228;2023-09-07T00:32:46;101261.12;;;15.07;77.61
36254;BME280;22291;52.250;21.228;2023-09-07T00:35:12;101258.93;;;15.06;77.26
36254;BME280;22291;52.250;21.228;2023-09-07T00:37:38;101260.86;;;15.06;77.45
36254;BME280;22291;52.250;21.228;2023-09-07T00:40:06;101255.10;;;15.07;77.64
36254;BME280;22291;52.250;21.228;2023-09-07T00:42:37;101262.39;;;15.09;77.63
36254;BME280;22291;52.250;21.228;2023-09-07T00:45:05;101257.20;;;15.10;77.57
36254;BME280;22291;52.250;21.228;2023-09-07T00:47:34;101260.72;;;15.11;77.26
36254;BME280;22291;52.250;21.228;2023-09-07T00:50:04;101258.79;;;15.11;77.22
36254;BME280;22291;52.250;21.228;2023-09-07T00:52:32;101260.15;;;15.11;77.14
36254;BME280;22291;52.250;21.228;2023-09-07T00:55:01;101255.75;;;15.13;77.19
36254;BME280;22291;52.250;21.228;2023-09-07T00:57:31;101257.68;;;15.12;77.18
36254;BME280;22291;52.250;21.228;2023-09-07T00:59:58;101260.78;;;15.08;76.67
36254;BME280;22291;52.250;21.228;2023-09-07T01:02:24;101256.61;;;15.02;76.47
36254;BME280;22291;52.250;21.228;2023-09-07T01:04:51;101261.58;;;15.00;76.72
36254;BME280;22291;52.250;21.228;2023-09-07T01:09:54;101258.42;;;14.96;76.71
36254;BME280;22291;52.250;21.228;2023-09-07T01:12:23;101257.12;;;14.93;76.63
36254;BME280;22291;52.250;21.228;2023-09-07T01:14:50;101259.13;;;14.90;76.75
36254;BME280;22291;52.250;21.228;2023-09-07T01:17:16;101254.63;;;14.85;76.74
36254;BME280;22291;52.250;21.228;2023-09-07T01:19:44;101257.66;;;14.84;76.85
36254;BME280;22291;52.250;21.228;2023-09-07T01:22:12;101256.12;;;14.80;76.98
36254;BME280;22291;52.250;21.228;2023-09-07T01:24:41;101252.41;;;14.76;76.98
36254;BME280;22291;52.250;21.228;2023-09-07T01:27:09;101252.41;;;14.76;77.15
36254;BME280;22291;52.250;21.228;2023-09-07T01:29:35;101255.47;;;14.74;77.39
36254;BME280;22291;52.250;21.228;2023-09-07T01:32:04;101261.40;;;14.77;77.61
36254;BME280;22291;52.250;21.228;2023-09-07T01:34:32;101260.27;;;14.78;77.58
36254;BME280;22291;52.250;21.228;2023-09-07T01:36:58;101254.28;;;14.78;77.37
36254;BME280;22291;52.250;21.228;2023-09-07T01:39:24;101259.47;;;14.77;77.27
36254;BME280;22291;52.250;21.228;2023-09-07T01:41:52;101265.40;;;14.79;77.31
36254;BME280;22291;52.250;21.228;2023-09-07T01:44:18;101255.07;;;14.79;77.28
36254;BME280;22291;52.250;21.228;2023-09-07T01:46:45;101263.23;;;14.79;77.24
36254;BME280;22291;52.250;21.228;2023-09-07T01:49:11;101262.27;;;14.74;77.09
36254;BME280;22291;52.250;21.228;2023-09-07T01:51:37;101264.66;;;14.76;77.38
36254;BME280;22291;52.250;21.228;2023-09-07T01:54:04;101263.55;;;14.77;77.38
36254;BME280;22291;52.250;21.228;2023-09-07T01:56:31;101261.94;;;14.76;77.16
36254;BME280;22291;52.250;21.228;2023-09-07T01:58:57;101263.63;;;14.74;77.17
36254;BME280;22291;52.250;21.228;2023-09-07T02:01:26;101265.31;;;14.73;77.37
36254;BME280;22291;52.250;21.228;2023-09-07T02:03:55;101266.67;;;14.73;77.43
36254;BME280;22291;52.250;21.228;2023-09-07T02:06:22;101257.19;;;14.70;77.24
36254;BME280;22291;52.250;21.228;2023-09-07T02:08:48;101263.43;;;14.71;77.49
36254;BME280;22291;52.250;21.228;2023-09-07T02:11:15;101265.36;;;14.70;77.52
36254;BME280;22291;52.250;21.228;2023-09-07T02:13:42;101261.36;;;14.68;77.39
36254;BME280;22291;52.250;21.228;2023-09-07T02:16:10;101255.40;;;14.66;77.58
36254;BME280;22291;52.250;21.228;2023-09-07T02:18:36;101258.64;;;14.68;77.57
36254;BME280;22291;52.250;21.228;2023-09-07T02:21:05;101256.77;;;14.66;77.50
36254;BME280;22291;52.250;21.228;2023-09-07T02:23:32;101257.81;;;14.67;77.72
36254;BME280;22291;52.250;21.228;2023-09-07T02:25:59;101253.50;;;14.66;77.63
36254;BME280;22291;52.250;21.228;2023-09-07T02:28:26;101262.20;;;14.66;77.57
36254;BME280;22291;52.250;21.228;2023-09-07T02:30:53;101261.19;;;14.64;77.51
36254;BME280;22291;52.250;21.228;2023-09-07T02:33:19;101260.36;;;14.64;77.49
36254;BME280;22291;52.250;21.228;2023-09-07T02:35:47;101262.29;;;14.63;77.49
36254;BME280;22291;52.250;21.228;2023-09-07T02:38:15;101259.62;;;14.61;77.34
36254;BME280;22291;52.250;21.228;2023-09-07T02:40:43;101267.58;;;14.57;77.12
36254;BME280;22291;52.250;21.228;2023-09-07T02:43:10;101265.25;;;14.53;76.91
36254;BME280;22291;52.250;21.228;2023-09-07T02:45:38;101265.07;;;14.49;77.13
36254;BME280;22291;52.250;21.228;2023-09-07T02:48:06;101261.52;;;14.49;77.27
36254;BME280;22291;52.250;21.228;2023-09-07T02:50:33;101264.33;;;14.46;77.32
36254;BME280;22291;52.250;21.228;2023-09-07T02:53:02;101265.73;;;14.44;77.26
36254;BME280;22291;52.250;21.228;2023-09-07T02:55:30;101275.83;;;14.43;77.28
36254;BME280;22291;52.250;21.228;2023-09-07T02:57:57;101274.24;;;14.42;77.38
36254;BME280;22291;52.250;21.228;2023-09-07T03:00:23;101268.54;;;14.41;77.45
36254;BME280;22291;52.250;21.228;2023-09-07T03:02:50;101269.90;;;14.41;77.47
36254;BME280;22291;52.250;21.228;2023-09-07T03:05:18;101269.41;;;14.39;77.58
36254;BME280;22291;52.250;21.228;2023-09-07T03:07:46;101267.00;;;14.37;77.49
36254;BME280;22291;52.250;21.228;2023-09-07T03:10:14;101273.80;;;14.37;77.47
36254;BME280;22291;52.250;21.228;2023-09-07T03:12:41;101276.09;;;14.33;77.22
36254;BME280;22291;52.250;21.228;2023-09-07T03:15:09;101281.66;;;14.28;77.09
36254;BME280;22291;52.250;21.228;2023-09-07T03:17:36;101284.45;;;14.25;77.01
36254;BME280;22291;52.250;21.228;2023-09-07T03:20:05;101291.88;;;14.22;76.73
36254;BME280;22291;52.250;21.228;2023-09-07T03:22:37;101290.56;;;14.19;76.76
36254;BME280;22291;52.250;21.228;2023-09-07T03:25:05;101290.38;;;14.16;77.05
36254;BME280;22291;52.250;21.228;2023-09-07T03:27:32;101290.19;;;14.12;76.98
36254;BME280;22291;52.250;21.228;2023-09-07T03:29:59;101294.09;;;14.09;77.17
36254;BME280;22291;52.250;21.228;2023-09-07T03:32:25;101291.48;;;14.04;77.25
36254;BME280;22291;52.250;21.228;2023-09-07T03:34:53;101296.78;;;13.97;77.51
36254;BME280;22291;52.250;21.228;2023-09-07T03:37:20;101293.58;;;13.95;77.80
36254;BME280;22291;52.250;21.228;2023-09-07T03:39:47;101293.12;;;13.91;77.62
36254;BME280;22291;52.250;21.228;2023-09-07T03:42:13;101294.56;;;13.88;78.00
36254;BME280;22291;52.250;21.228;2023-09-07T03:44:39;101287.80;;;13.86;78.21
36254;BME280;22291;52.250;21.228;2023-09-07T03:47:05;101291.09;;;13.85;78.21
36254;BME280;22291;52.250;21.228;2023-09-07T03:49:31;101294.67;;;13.83;78.25
36254;BME280;22291;52.250;21.228;2023-09-07T03:51:58;101299.05;;;13.81;78.15
36254;BME280;22291;52.250;21.228;2023-09-07T03:54:24;101303.17;;;13.79;78.05
36254;BME280;22291;52.250;21.228;2023-09-07T03:56:50;101304.61;;;13.76;77.77
36254;BME280;22291;52.250;21.228;2023-09-07T03:59:16;101301.39;;;13.74;77.53
36254;BME280;22291;52.250;21.228;2023-09-07T04:01:42;101295.20;;;13.71;77.39
36254;BME280;22291;52.250;21.228;2023-09-07T04:04:08;101303.97;;;13.68;77.32
36254;BME280;22291;52.250;21.228;2023-09-07T04:06:35;101291.28;;;13.63;77.38
36254;BME280;22291;52.250;21.228;2023-09-07T04:09:01;101298.70;;;13.60;77.55
36254;BME280;22291;52.250;21.228;2023-09-07T04:11:27;101294.17;;;13.56;77.68
36254;BME280;22291;52.250;21.228;2023-09-07T04:13:53;101300.78;;;13.52;77.46
36254;BME280;22291;52.250;21.228;2023-09-07T04:16:19;101298.66;;;13.49;77.52
36254;BME280;22291;52.250;21.228;2023-09-07T04:18:45;101299.03;;;13.45;77.36
36254;BME280;22291;52.250;21.228;2023-09-07T04:21:12;101296.62;;;13.43;77.56
36254;BME280;22291;52.250;21.228;2023-09-07T04:23:38;101297.22;;;13.40;78.03
36254;BME280;22291;52.250;21.228;2023-09-07T04:26:11;101302.16;;;13.38;78.11
36254;BME280;22291;52.250;21.228;2023-09-07T04:28:36;101298.38;;;13.37;78.01
36254;BME280;22291;52.250;21.228;2023-09-07T04:31:05;101302.99;;;13.36;78.03
36254;BME280;22291;52.250;21.228;2023-09-07T04:33:33;101298.98;;;13.34;77.98
36254;BME280;22291;52.250;21.228;2023-09-07T04:38:39;101305.28;;;13.29;78.07
36254;BME280;22291;52.250;21.228;2023-09-07T04:41:08;101304.72;;;13.30;78.39
36254;BME280;22291;52.250;21.228;2023-09-07T04:43:39;101306.64;;;13.29;78.82
36254;BME280;22291;52.250;21.228;2023-09-07T04:46:11;101306.64;;;13.29;78.80
36254;BME280;22291;52.250;21.228;2023-09-07T04:48:39;101307.99;;;13.32;79.22
36254;BME280;22291;52.250;21.228;2023-09-07T04:51:08;101318.56;;;13.33;79.25
36254;BME280;22291;52.250;21.228;2023-09-07T04:53:38;101313.36;;;13.34;79.47
36254;BME280;22291;52.250;21.228;2023-09-07T04:56:06;101317.63;;;13.38;79.79
36254;BME280;22291;52.250;21.228;2023-09-07T04:58:34;101323.03;;;13.40;80.00
36254;BME280;22291;52.250;21.228;2023-09-07T05:01:02;101319.16;;;13.44;80.08
36254;BME280;22291;52.250;21.228;2023-09-07T05:03:35;101319.61;;;13.49;80.13
36254;BME280;22291;52.250;21.228;2023-09-07T05:06:03;101333.33;;;13.55;80.30
36254;BME280;22291;52.250;21.228;2023-09-07T05:08:30;101332.13;;;13.61;80.52
36254;BME280;22291;52.250;21.228;2023-09-07T05:10:59;101336.33;;;13.67;80.39
36254;BME280;22291;52.250;21.228;2023-09-07T05:13:26;101337.58;;;13.72;80.51
36254;BME280;22291;52.250;21.228;2023-09-07T05:15:54;101338.59;;;13.76;80.87
36254;BME280;22291;52.250;21.228;2023-09-07T05:18:22;101341.20;;;13.81;80.78
36254;BME280;22291;52.250;21.228;2023-09-07T05:20:49;101339.17;;;13.87;80.83
36254;BME280;22291;52.250;21.228;2023-09-07T05:23:18;101345.06;;;13.92;80.92
36254;BME280;22291;52.250;21.228;2023-09-07T05:25:50;101340.87;;;13.97;81.16
36254;BME280;22291;52.250;21.228;2023-09-07T05:28:19;101342.30;;;14.06;81.49
36254;BME280;22291;52.250;21.228;2023-09-07T05:30:47;101345.84;;;14.17;81.88
36254;BME280;22291;52.250;21.228;2023-09-07T05:33:16;101337.93;;;14.30;82.01
36254;BME280;22291;52.250;21.228;2023-09-07T05:35:44;101341.23;;;14.41;82.23
36254;BME280;22291;52.250;21.228;2023-09-07T05:38:14;101342.08;;;14.50;82.25
36254;BME280;22291;52.250;21.228;2023-09-07T05:40:42;101336.59;;;14.64;82.50
36254;BME280;22291;52.250;21.228;2023-09-07T05:43:10;101345.43;;;14.81;82.68
36254;BME280;22291;52.250;21.228;2023-09-07T05:45:40;101347.44;;;14.98;83.45
36254;BME280;22291;52.250;21.228;2023-09-07T05:48:08;101345.10;;;15.13;83.21
36254;BME280;22291;52.250;21.228;2023-09-07T05:50:36;101350.33;;;15.33;83.12
36254;BME280;22291;52.250;21.228;2023-09-07T05:53:04;101354.78;;;15.48;82.89
36254;BME280;22291;52.250;21.228;2023-09-07T05:55:31;101350.51;;;15.65;82.94
36254;BME280;22291;52.250;21.228;2023-09-07T05:57:58;101351.84;;;15.85;82.82
36254;BME280;22291;52.250;21.228;2023-09-07T06:00:25;101365.68;;;16.06;82.74
36254;BME280;22291;52.250;21.228;2023-09-07T06:02:52;101359.59;;;16.27;82.87
36254;BME280;22291;52.250;21.228;2023-09-07T06:05:19;101352.36;;;16.48;82.48
36254;BME280;22291;52.250;21.228;2023-09-07T06:07:45;101355.77;;;16.69;82.25
36254;BME280;22291;52.250;21.228;2023-09-07T06:10:11;101354.54;;;16.90;81.84
36254;BME280;22291;52.250;21.228;2023-09-07T06:12:38;101354.08;;;17.11;81.34
36254;BME280;22291;52.250;21.228;2023-09-07T06:15:06;101363.70;;;17.32;81.15
36254;BME280;22291;52.250;21.228;2023-09-07T06:17:33;101361.59;;;17.53;80.85
36254;BME280;22291;52.250;21.228;2023-09-07T06:20:00;101362.64;;;17.69;80.28
36254;BME280;22291;52.250;21.228;2023-09-07T06:22:26;101364.22;;;17.85;80.00
36254;BME280;22291;52.250;21.228;2023-09-07T06:24:52;101361.36;;;17.97;79.26
36254;BME280;22291;52.250;21.228;2023-09-07T06:27:18;101364.61;;;18.05;78.76
36254;BME280;22291;52.250;21.228;2023-09-07T06:29:45;101365.45;;;18.18;78.90
36254;BME280;22291;52.250;21.228;2023-09-07T06:32:12;101370.11;;;18.32;78.58
36254;BME280;22291;52.250;21.228;2023-09-07T06:34:39;101369.58;;;18.45;79.04
36254;BME280;22291;52.250;21.228;2023-09-07T06:37:06;101375.70;;;18.69;79.42
36254;BME280;22291;52.250;21.228;2023-09-07T06:39:33;101376.16;;;18.92;79.35
36254;BME280;22291;52.250;21.228;2023-09-07T06:42:00;101369.79;;;19.13;78.93
36254;BME280;22291;52.250;21.228;2023-09-07T06:44:27;101372.44;;;19.40;78.82
36254;BME280;22291;52.250;21.228;2023-09-07T06:46:54;101365.31;;;19.70;78.90
36254;BME280;22291;52.250;21.228;2023-09-07T06:49:20;101367.69;;;20.02;78.23
36254;BME280;22291;52.250;21.228;2023-09-07T06:51:47;101371.27;;;20.31;77.19
36254;BME280;22291;52.250;21.228;2023-09-07T06:54:14;101370.48;;;20.59;76.77
36254;BME280;22291;52.250;21.228;2023-09-07T06:56:41;101371.56;;;20.92;75.91
36254;BME280;22291;52.250;21.228;2023-09-07T06:59:07;101370.44;;;21.25;75.33
36254;BME280;22291;52.250;21.228;2023-09-07T07:01:33;101369.86;;;21.57;74.57
36254;BME280;22291;52.250;21.228;2023-09-07T07:04:01;101373.53;;;21.91;73.80
36254;BME280;22291;52.250;21.228;2023-09-07T07:06:28;101381.33;;;22.24;73.19
36254;BME280;22291;52.250;21.228;2023-09-07T07:08:55;101375.89;;;22.57;72.22
36254;BME280;22291;52.250;21.228;2023-09-07T07:11:21;101374.81;;;22.85;71.06
36254;BME280;22291;52.250;21.228;2023-09-07T07:13:49;101379.00;;;23.08;70.07
36254;BME280;22291;52.250;21.228;2023-09-07T07:16:17;101378.88;;;23.37;69.14
36254;BME280;22291;52.250;21.228;2023-09-07T07:18:43;101378.34;;;23.68;68.04
36254;BME280;22291;52.250;21.228;2023-09-07T07:21:10;101387.11;;;24.00;67.47
36254;BME280;22291;52.250;21.228;2023-09-07T07:23:37;101379.98;;;24.30;66.60
36254;BME280;22291;52.250;21.228;2023-09-07T07:26:04;101385.84;;;24.58;65.76
36254;BME280;22291;52.250;21.228;2023-09-07T07:28:31;101390.09;;;24.86;64.71
36254;BME280;22291;52.250;21.228;2023-09-07T07:30:58;101389.35;;;25.13;63.72
36254;BME280;22291;52.250;21.228;2023-09-07T07:33:25;101395.09;;;25.39;62.70
36254;BME280;22291;52.250;21.228;2023-09-07T07:35:51;101390.92;;;25.59;61.98
36254;BME280;22291;52.250;21.228;2023-09-07T07:38:18;101389.27;;;25.86;61.54
36254;BME280;22291;52.250;21.228;2023-09-07T07:40:46;101392.81;;;26.14;60.53
36254;BME280;22291;52.250;21.228;2023-09-07T07:43:13;101393.09;;;26.40;59.89
36254;BME280;22291;52.250;21.228;2023-09-07T07:45:40;101401.34;;;26.68;59.38
36254;BME280;22291;52.250;21.228;2023-09-07T07:48:06;101406.52;;;26.88;57.82
36254;BME280;22291;52.250;21.228;2023-09-07T07:50:39;101396.81;;;27.02;57.01
36254;BME280;22291;52.250;21.228;2023-09-07T07:53:06;101403.37;;;27.14;56.06
36254;BME280;22291;52.250;21.228;2023-09-07T07:55:37;101399.61;;;27.34;55.95
36254;BME280;22291;52.250;21.228;2023-09-07T07:58:06;101405.95;;;27.64;55.26
36254;BME280;22291;52.250;21.228;2023-09-07T08:00:37;101406.67;;;27.97;54.50
36254;BME280;22291;52.250;21.228;2023-09-07T11:13:04;101367.28;;;36.64;29.49
36254;BME280;22291;52.250;21.228;2023-09-07T11:15:32;101367.64;;;36.31;29.61
36254;BME280;22291;52.250;21.228;2023-09-07T11:18:06;101369.74;;;35.90;29.63
36254;BME280;22291;52.250;21.228;2023-09-07T11:20:36;101365.23;;;35.49;29.75
36254;BME280;22291;52.250;21.228;2023-09-07T11:23:05;101369.46;;;35.53;30.62
36254;BME280;22291;52.250;21.228;2023-09-07T11:25:37;101363.61;;;35.65;30.30
36254;BME280;22291;52.250;21.228;2023-09-07T11:28:06;101359.47;;;35.97;29.85
36254;BME280;22291;52.250;21.228;2023-09-07T11:30:33;101359.73;;;36.21;29.16
36254;BME280;22291;52.250;21.228;2023-09-07T11:33:03;101357.22;;;36.50;29.04
36254;BME280;22291;52.250;21.228;2023-09-07T11:35:32;101358.90;;;36.83;29.27
36254;BME280;22291;52.250;21.228;2023-09-07T11:38:02;101355.30;;;37.01;28.73
36254;BME280;22291;52.250;21.228;2023-09-07T11:40:31;101355.01;;;37.17;28.58
36254;BME280;22291;52.250;21.228;2023-09-07T11:42:57;101351.89;;;37.38;27.84
36254;BME280;22291;52.250;21.228;2023-09-07T11:45:24;101346.22;;;37.52;27.63
36254;BME280;22291;52.250;21.228;2023-09-07T11:47:51;101344.95;;;37.63;27.28
36254;BME280;22291;52.250;21.228;2023-09-07T11:50:18;101349.05;;;37.75;27.07
36254;BME280;22291;52.250;21.228;2023-09-07T11:52:45;101348.47;;;38.05;27.19
36254;BME280;22291;52.250;21.228;2023-09-07T11:55:13;101348.80;;;38.45;27.03
36254;BME280;22291;52.250;21.228;2023-09-07T11:57:40;101341.57;;;38.77;26.67
36254;BME280;22291;52.250;21.228;2023-09-07T12:00:08;101340.16;;;38.97;26.48
36254;BME280;22291;52.250;21.228;2023-09-07T12:02:38;101340.75;;;38.81;27.24
36254;BME280;22291;52.250;21.228;2023-09-07T12:05:06;101339.97;;;38.52;26.12
36254;BME280;22291;52.250;21.228;2023-09-07T12:07:36;101337.34;;;38.44;26.78
36254;BME280;22291;52.250;21.228;2023-09-07T12:10:04;101338.66;;;38.34;27.07
36254;BME280;22291;52.250;21.228;2023-09-07T12:12:31;101340.06;;;38.34;27.07
36254;BME280;22291;52.250;21.228;2023-09-07T12:14:57;101345.48;;;38.04;26.17
36254;BME280;22291;52.250;21.228;2023-09-07T12:17:25;101341.38;;;37.44;26.99
36254;BME280;22291;52.250;21.228;2023-09-07T12:19:51;101339.65;;;36.95;27.92
36254;BME280;22291;52.250;21.228;2023-09-07T12:22:18;101342.55;;;36.69;27.53
36254;BME280;22291;52.250;21.228;2023-09-07T12:24:44;101338.77;;;36.62;27.86
36254;BME280;22291;52.250;21.228;2023-09-07T12:27:10;101333.11;;;36.44;27.67
36254;BME280;22291;52.250;21.228;2023-09-07T12:29:36;101338.30;;;36.19;27.80
36254;BME280;22291;52.250;21.228;2023-09-07T12:32:03;101337.30;;;35.77;27.67
36254;BME280;22291;52.250;21.228;2023-09-07T12:34:31;101330.30;;;35.20;28.21
36254;BME280;22291;52.250;21.228;2023-09-07T12:36:57;101330.58;;;34.56;28.43
36254;BME280;22291;52.250;21.228;2023-09-07T12:39:23;101330.27;;;33.95;29.00
36254;BME280;22291;52.250;21.228;2023-09-07T12:41:49;101331.44;;;33.39;29.42
36254;BME280;22291;52.250;21.228;2023-09-07T12:44:15;101329.95;;;32.88;29.74
36254;BME280;22291;52.250;21.228;2023-09-07T12:46:44;101319.78;;;32.37;30.32
36254;BME280;22291;52.250;21.228;2023-09-07T12:49:10;101324.27;;;31.86;30.39
36254;BME280;22291;52.250;21.228;2023-09-07T12:51:36;101326.48;;;31.75;31.84
36254;BME280;22291;52.250;21.228;2023-09-07T12:54:03;101321.69;;;32.03;31.98
36254;BME280;22291;52.250;21.228;2023-09-07T12:56:29;101319.23;;;32.50;32.23
36254;BME280;22291;52.250;21.228;2023-09-07T12:58:55;101313.34;;;32.81;32.20
36254;BME280;22291;52.250;21.228;2023-09-07T13:01:23;101302.70;;;33.05;31.48
36254;BME280;22291;52.250;21.228;2023-09-07T13:03:50;101304.13;;;33.35;31.90
36254;BME280;22291;52.250;21.228;2023-09-07T13:06:16;101301.81;;;33.67;31.61
36254;BME280;22291;52.250;21.228;2023-09-07T13:08:44;101297.16;;;33.77;30.60
36254;BME280;22291;52.250;21.228;2023-09-07T13:11:11;101296.20;;;33.67;30.56
36254;BME280;22291;52.250;21.228;2023-09-07T13:13:38;101296.02;;;33.74;30.44
36254;BME280;22291;52.250;21.228;2023-09-07T13:16:04;101291.05;;;33.99;29.99
36254;BME280;22291;52.250;21.228;2023-09-07T13:18:31;101287.85;;;34.18;29.75
36254;BME280;22291;52.250;21.228;2023-09-07T13:20:57;101287.14;;;34.35;29.62
36254;BME280;22291;52.250;21.228;2023-09-07T13:23:27;101288.69;;;34.49;29.31
36254;BME280;22291;52.250;21.228;2023-09-07T13:25:57;101287.60;;;34.64;29.33
36254;BME280;22291;52.250;21.228;2023-09-07T13:28:23;101284.22;;;34.82;29.52
36254;BME280;22291;52.250;21.228;2023-09-07T13:30:50;101289.80;;;34.77;29.66
36254;BME280;22291;52.250;21.228;2023-09-07T13:33:16;101285.34;;;34.72;29.52
36254;BME280;22291;52.250;21.228;2023-09-07T13:35:43;101288.55;;;34.66;29.82
36254;BME280;22291;52.250;21.228;2023-09-07T13:38:10;101286.32;;;34.60;29.49
36254;BME280;22291;52.250;21.228;2023-09-07T13:40:36;101283.58;;;34.52;30.25
36254;BME280;22291;52.250;21.228;2023-09-07T13:43:03;101282.69;;;34.42;30.33
36254;BME280;22291;52.250;21.228;2023-09-07T13:45:29;101282.66;;;34.38;30.50
36254;BME280;22291;52.250;21.228;2023-09-07T13:47:56;101283.55;;;34.22;30.54
36254;BME280;22291;52.250;21.228;2023-09-07T13:50:22;101275.71;;;33.83;30.59
36254;BME280;22291;52.250;21.228;2023-09-07T13:52:48;101279.21;;;33.45;30.40
36254;BME280;22291;52.250;21.228;2023-09-07T13:55:15;101269.52;;;33.04;30.82
36254;BME280;22291;52.250;21.228;2023-09-07T13:57:42;101277.09;;;32.66;31.52
36254;BME280;22291;52.250;21.228;2023-09-07T14:00:10;101279.19;;;32.37;32.22
36254;BME280;22291;52.250;21.228;2023-09-07T14:02:36;101275.92;;;32.14;32.15
36254;BME280;22291;52.250;21.228;2023-09-07T14:05:03;101284.73;;;31.84;32.46
36254;BME280;22291;52.250;21.228;2023-09-07T14:07:31;101280.05;;;31.49;33.04
36254;BME280;22291;52.250;21.228;2023-09-07T14:09:57;101272.38;;;31.13;33.41
36254;BME280;22291;52.250;21.228;2023-09-07T14:12:23;101275.11;;;30.81;33.62
36254;BME280;22291;52.250;21.228;2023-09-07T14:14:50;101280.92;;;30.43;34.71
36254;BME280;22291;52.250;21.228;2023-09-07T14:17:16;101280.92;;;30.43;34.71
36254;BME280;22291;52.250;21.228;2023-09-07T14:19:43;101257.27;;;30.24;35.79
36254;BME280;22291;52.250;21.228;2023-09-07T14:22:12;101278.13;;;30.43;36.22
36254;BME280;22291;52.250;21.228;2023-09-07T14:24:38;101261.39;;;30.43;35.86
36254;BME280;22291;52.250;21.228;2023-09-07T14:27:05;101290.11;;;30.79;36.28
36254;BME280;22291;52.250;21.228;2023-09-07T14:29:31;101258.42;;;30.66;36.12
36254;BME280;22291;52.250;21.228;2023-09-07T14:32:00;101249.81;;;30.80;35.37
36254;BME280;22291;52.250;21.228;2023-09-07T14:34:26;101250.81;;;30.90;36.08
36254;BME280;22291;52.250;21.228;2023-09-07T14:36:53;101253.56;;;30.94;35.65
36254;BME280;22291;52.250;21.228;2023-09-07T14:39:21;101255.70;;;30.98;35.20
36254;BME280;22291;52.250;21.228;2023-09-07T14:41:50;101256.41;;;31.02;35.41
36254;BME280;22291;52.250;21.228;2023-09-07T14:44:20;101256.73;;;31.07;35.19
36254;BME280;22291;52.250;21.228;2023-09-07T14:46:47;101246.97;;;31.16;34.91
36254;BME280;22291;52.250;21.228;2023-09-07T14:49:16;101251.34;;;31.17;35.06
36254;BME280;22291;52.250;21.228;2023-09-07T14:51:46;101248.36;;;31.16;35.28
36254;BME280;22291;52.250;21.228;2023-09-07T14:54:13;101246.87;;;31.11;35.41
36254;BME280;22291;52.250;21.228;2023-09-07T14:56:39;101242.26;;;31.13;35.34
36254;BME280;22291;52.250;21.228;2023-09-07T14:59:06;101265.59;;;31.22;35.65
36254;BME280;22291;52.250;21.228;2023-09-07T15:01:33;101245.55;;;31.07;35.50
36254;BME280;22291;52.250;21.228;2023-09-07T15:04:00;101246.70;;;30.98;35.17
36254;BME280;22291;52.250;21.228;2023-09-07T15:06:26;101244.69;;;30.99;35.51
36254;BME280;22291;52.250;21.228;2023-09-07T15:08:53;101248.98;;;30.91;35.23
36254;BME280;22291;52.250;21.228;2023-09-07T15:11:21;101235.17;;;30.72;35.17
36254;BME280;22291;52.250;21.228;2023-09-07T15:13:49;101235.17;;;30.72;35.17
36254;BME280;22291;52.250;21.228;2023-09-07T15:16:17;101240.08;;;30.65;35.53
36254;BME280;22291;52.250;21.228;2023-09-07T15:18:44;101231.83;;;30.58;35.44
36254;BME280;22291;52.250;21.228;2023-09-07T15:21:10;101249.91;;;30.49;35.50
36254;BME280;22291;52.250;21.228;2023-09-07T15:23:36;101235.48;;;30.27;35.77
36254;BME280;22291;52.250;21.228;2023-09-07T15:26:02;101235.48;;;30.27;35.77
36254;BME280;22291;52.250;21.228;2023-09-07T15:28:29;101238.81;;;30.18;35.96
36254;BME280;22291;52.250;21.228;2023-09-07T15:30:57;101228.60;;;30.08;35.81
36254;BME280;22291;52.250;21.228;2023-09-07T15:33:23;101239.03;;;30.04;36.03
36254;BME280;22291;52.250;21.228;2023-09-07T15:35:50;101232.87;;;29.89;36.78
36254;BME280;22291;52.250;21.228;2023-09-07T15:38:16;101232.22;;;29.78;36.61
36254;BME280;22291;52.250;21.228;2023-09-07T15:40:43;101227.33;;;29.70;36.86
36254;BME280;22291;52.250;21.228;2023-09-07T15:43:11;101231.25;;;29.61;37.16
36254;BME280;22291;52.250;21.228;2023-09-07T15:45:37;101230.34;;;29.52;37.60
36254;BME280;22291;52.250;21.228;2023-09-07T15:48:06;101227.33;;;29.39;37.81
36254;BME280;22291;52.250;21.228;2023-09-07T15:50:33;101227.02;;;29.30;37.99
36254;BME280;22291;52.250;21.228;2023-09-07T15:53:00;101226.37;;;29.19;38.18
36254;BME280;22291;52.250;21.228;2023-09-07T15:55:26;101226.69;;;29.05;38.15